Time;durP1;ratioP1;P1;durP2;ratioP2;P2;SDS_P1;SDS_P2;PMS_P1;PMS_P2;Temp;Humidity;BMP_temperature;BMP_pressure;BME280_temperature;BME280_humidity;BME280_pressure;Samples;Min_cycle;Max_cycle;Signal;HPM_P1;HPM_P2
2023/12/09 00:00:09;;;;;;;76.10;29.60;;;7.80;99.90;;;;;;5073413;28;20086;-71
2023/12/09 00:02:35;;;;;;;69.38;28.13;;;7.90;99.90;;;;;;5073436;28;20119;-71
2023/12/09 00:05:01;;;;;;;73.28;28.20;;;7.90;99.90;;;;;;5071950;28;20117;-71
2023/12/09 00:07:26;;;;;;;65.55;27.60;;;7.90;99.90;;;;;;5072154;28;20063;-71
2023/12/09 00:09:52;;;;;;;71.60;28.08;;;7.90;99.90;;;;;;5071863;28;20535;-71
2023/12/09 00:12:17;;;;;;;70.18;26.55;;;7.90;99.90;;;;;;5073350;28;20068;-71
2023/12/09 00:14:43;;;;;;;68.50;27.15;;;8.00;99.90;;;;;;5071847;28;20114;-71
2023/12/09 00:17:09;;;;;;;68.63;25.85;;;7.90;99.90;;;;;;5071720;28;20044;-71
2023/12/09 00:19:34;;;;;;;63.65;25.77;;;7.90;99.90;;;;;;5073235;28;20079;-71
2023/12/09 00:22:00;;;;;;;63.65;25.48;;;7.90;99.90;;;;;;5073030;28;20078;-71
2023/12/09 00:24:26;;;;;;;65.70;25.35;;;7.90;99.90;;;;;;5071737;28;20062;-71
2023/12/09 00:26:51;;;;;;;60.83;25.88;;;8.00;99.90;;;;;;5073180;28;20049;-71
2023/12/09 00:29:17;;;;;;;70.50;25.25;;;8.00;99.90;;;;;;5071684;28;20045;-71
2023/12/09 00:31:43;;;;;;;66.22;25.50;;;7.90;99.90;;;;;;5071930;28;20076;-71
2023/12/09 00:34:09;;;;;;;67.57;26.98;;;8.00;99.90;;;;;;5071668;28;20036;-71
2023/12/09 00:36:35;;;;;;;68.40;25.92;;;8.00;99.90;;;;;;5073160;28;20062;-71
2023/12/09 00:39:00;;;;;;;64.60;24.75;;;8.00;99.90;;;;;;5071608;28;20117;-71
2023/12/09 00:41:26;;;;;;;57.45;24.83;;;8.00;99.90;;;;;;5071843;28;20485;-71
2023/12/09 00:43:52;;;;;;;59.03;25.17;;;7.90;99.90;;;;;;5071591;28;20507;-71
2023/12/09 00:46:17;;;;;;;66.05;25.33;;;8.00;99.90;;;;;;5071541;28;20044;-71
2023/12/09 00:48:44;;;;;;;57.72;25.42;;;8.00;99.90;;;;;;5071500;28;20044;-71
2023/12/09 00:51:09;;;;;;;69.65;26.63;;;8.00;99.90;;;;;;5072962;28;20485;-71
2023/12/09 00:53:35;;;;;;;61.85;25.10;;;8.00;99.90;;;;;;5071477;28;20052;-71
2023/12/09 00:56:00;;;;;;;69.13;24.42;;;8.00;99.90;;;;;;5071452;28;20148;-71
2023/12/09 00:58:26;;;;;;;60.20;23.65;;;8.00;99.90;;;;;;5071381;28;20050;-71
2023/12/09 01:00:52;;;;;;;61.30;24.40;;;7.90;99.90;;;;;;5072572;28;20046;-71
2023/12/09 01:03:18;;;;;;;67.75;23.98;;;8.00;99.90;;;;;;5073111;28;20049;-71
2023/12/09 01:05:44;;;;;;;51.47;24.23;;;8.00;99.90;;;;;;5076681;28;20047;-71
2023/12/09 01:08:09;;;;;;;56.45;22.88;;;8.00;99.90;;;;;;5075388;28;20040;-71
2023/12/09 01:10:35;;;;;;;58.35;23.02;;;8.00;99.90;;;;;;5075086;28;20048;-71
2023/12/09 01:13:00;;;;;;;69.20;23.27;;;8.00;99.90;;;;;;5076527;28;20040;-71
2023/12/09 01:15:26;;;;;;;56.58;22.58;;;8.00;99.90;;;;;;5075270;28;20048;-71
2023/12/09 01:17:52;;;;;;;65.25;25.83;;;8.00;99.90;;;;;;5076398;28;20400;-71
2023/12/09 01:20:18;;;;;;;59.97;23.30;;;8.00;99.90;;;;;;5075420;28;20105;-71
2023/12/09 01:22:44;;;;;;;62.40;22.98;;;8.00;99.90;;;;;;5074750;28;20040;-71
2023/12/09 01:25:09;;;;;;;56.58;23.48;;;8.00;99.90;;;;;;5075060;28;20036;-71
2023/12/09 01:27:35;;;;;;;66.15;24.75;;;8.00;99.90;;;;;;5074803;28;20586;-71
2023/12/09 01:30:02;;;;;;;61.83;23.83;;;8.00;99.90;;;;;;5074704;28;20052;-71
2023/12/09 01:32:27;;;;;;;60.42;23.40;;;8.00;99.90;;;;;;5074934;28;20044;-71
2023/12/09 01:34:55;;;;;;;60.67;23.67;;;8.00;99.90;;;;;;5074963;28;20127;-71
2023/12/09 01:37:22;;;;;;;66.80;24.45;;;8.00;99.90;;;;;;5074543;28;20048;-71
2023/12/09 01:39:47;;;;;;;66.65;24.13;;;8.00;99.90;;;;;;5075977;28;20032;-71
2023/12/09 01:42:13;;;;;;;55.33;23.27;;;7.90;99.90;;;;;;5074502;28;20040;-71
2023/12/09 01:44:39;;;;;;;51.92;22.17;;;8.00;99.90;;;;;;5074499;28;20052;-71
2023/12/09 01:47:05;;;;;;;57.92;22.92;;;8.00;99.90;;;;;;5074426;28;20079;-71
2023/12/09 01:49:32;;;;;;;62.45;23.33;;;8.00;99.90;;;;;;5074322;28;20048;-71
2023/12/09 01:51:59;;;;;;;62.28;23.98;;;8.00;99.90;;;;;;5074580;28;20068;-71
2023/12/09 01:54:26;;;;;;;60.53;22.10;;;8.00;99.90;;;;;;5074567;28;20127;-71
2023/12/09 01:56:53;;;;;;;52.88;21.80;;;8.00;99.90;;;;;;5074272;28;20040;-71
2023/12/09 01:59:19;;;;;;;55.83;21.88;;;8.00;99.90;;;;;;5074003;28;20459;-71
2023/12/09 02:01:45;;;;;;;56.40;22.02;;;8.00;99.90;;;;;;5075694;28;20534;-71
2023/12/09 02:04:12;;;;;;;52.17;22.05;;;8.00;99.90;;;;;;5075629;28;20037;-71
2023/12/09 02:06:38;;;;;;;54.25;22.38;;;8.00;99.90;;;;;;5075589;28;20098;-71
2023/12/09 02:09:03;;;;;;;51.30;21.08;;;8.00;99.90;;;;;;5074081;28;20433;-71
2023/12/09 02:11:57;;;;;;;59.45;21.35;;;8.00;99.90;;;;;;5075421;28;20048;-71
2023/12/09 02:14:38;;;;;;;61.17;21.90;;;8.00;99.90;;;;;;5071396;28;20061;-71
2023/12/09 02:17:17;;;;;;;57.92;20.83;;;8.00;99.90;;;;;;5075360;28;20044;-71
2023/12/09 02:19:44;;;;;;;50.38;21.00;;;8.00;99.90;;;;;;5074110;28;20045;-71
2023/12/09 02:22:10;;;;;;;55.20;22.40;;;7.90;99.90;;;;;;5075106;28;20040;-71
2023/12/09 02:24:35;;;;;;;52.53;20.48;;;8.00;99.90;;;;;;5075305;28;20044;-71
2023/12/09 02:27:11;;;;;;;60.55;22.55;;;8.00;99.90;;;;;;5073641;28;20032;-71
2023/12/09 02:30:05;;;;;;;53.33;21.35;;;8.00;99.90;;;;;;5056899;28;20028;-71
2023/12/09 02:32:34;;;;;;;49.92;20.33;;;8.00;99.90;;;;;;5073693;28;20062;-71
2023/12/09 02:35:02;;;;;;;55.80;20.67;;;8.00;99.90;;;;;;5073600;28;20044;-71
2023/12/09 02:37:31;;;;;;;52.47;20.77;;;8.00;99.90;;;;;;5074921;28;20036;-71
2023/12/09 02:39:58;;;;;;;60.58;21.75;;;8.10;99.90;;;;;;5074898;28;20036;-71
2023/12/09 02:42:25;;;;;;;52.60;19.98;;;8.10;99.90;;;;;;5073389;28;20080;-71
2023/12/09 02:44:51;;;;;;;53.67;20.35;;;8.10;99.90;;;;;;5073392;28;20049;-71
2023/12/09 02:47:16;;;;;;;55.58;21.50;;;8.10;99.90;;;;;;5074831;28;20047;-71
2023/12/09 02:49:42;;;;;;;54.85;20.02;;;8.10;99.90;;;;;;5073180;28;20041;-71
2023/12/09 02:52:09;;;;;;;54.72;20.67;;;8.00;99.90;;;;;;5074751;28;20097;-71
2023/12/09 02:54:35;;;;;;;51.42;20.45;;;8.00;99.90;;;;;;5073497;28;20043;-71
2023/12/09 02:57:00;;;;;;;55.53;20.50;;;8.00;99.90;;;;;;5074344;28;20041;-71
2023/12/09 02:59:28;;;;;;;54.10;19.55;;;8.00;99.90;;;;;;5072903;28;20516;-71
2023/12/09 03:01:54;;;;;;;51.88;19.83;;;8.00;99.90;;;;;;5072998;28;20112;-71
2023/12/09 03:04:20;;;;;;;49.90;19.25;;;8.00;99.90;;;;;;5073186;28;20120;-71
2023/12/09 03:06:45;;;;;;;48.72;18.77;;;8.00;99.90;;;;;;5072855;28;20511;-71
2023/12/09 03:09:11;;;;;;;48.05;18.88;;;8.00;99.90;;;;;;5073168;28;20037;-71
2023/12/09 03:11:37;;;;;;;49.88;19.23;;;8.00;99.90;;;;;;5072713;28;20382;-71
2023/12/09 03:14:02;;;;;;;52.22;18.20;;;8.00;99.90;;;;;;5072744;28;20052;-71
2023/12/09 03:16:28;;;;;;;53.30;19.30;;;8.00;99.90;;;;;;5072713;28;20041;-71
2023/12/09 03:18:53;;;;;;;56.08;19.60;;;8.00;99.90;;;;;;5074108;28;20035;-71
2023/12/09 03:21:19;;;;;;;56.83;18.40;;;8.00;99.90;;;;;;5074001;28;20448;-71
2023/12/09 03:23:45;;;;;;;48.58;17.85;;;8.00;99.90;;;;;;5073682;28;20208;-71
2023/12/09 03:26:18;;;;;;;51.25;18.20;;;8.00;99.90;;;;;;5073106;28;20039;-71
2023/12/09 03:28:44;;;;;;;48.22;16.00;;;8.00;99.90;;;;;;5074022;28;20040;-71
2023/12/09 03:31:14;;;;;;;49.38;17.35;;;8.00;99.90;;;;;;5072376;28;20558;-71
2023/12/09 03:33:40;;;;;;;46.38;17.30;;;7.90;99.90;;;;;;5073898;28;20040;-71
2023/12/09 03:36:07;;;;;;;51.97;18.35;;;7.90;99.90;;;;;;5072330;28;20048;-71
2023/12/09 03:38:33;;;;;;;48.10;16.70;;;7.90;99.90;;;;;;5072263;28;20087;-71
2023/12/09 03:40:58;;;;;;;50.47;17.23;;;7.90;99.90;;;;;;5072226;28;20096;-71
2023/12/09 03:43:24;;;;;;;46.25;16.48;;;7.90;99.90;;;;;;5072214;28;20115;-71
2023/12/09 03:45:49;;;;;;;44.63;16.30;;;7.90;99.90;;;;;;5073705;28;20029;-71
2023/12/09 03:48:15;;;;;;;50.38;16.23;;;7.90;99.90;;;;;;5072431;28;20382;-71
2023/12/09 03:50:41;;;;;;;48.72;16.17;;;7.90;99.90;;;;;;5073585;28;20490;-71
2023/12/09 03:53:06;;;;;;;47.47;15.63;;;7.90;99.90;;;;;;5072092;28;20436;-71
2023/12/09 03:55:32;;;;;;;45.35;15.25;;;7.90;99.90;;;;;;5073248;28;20085;-71
2023/12/09 03:57:57;;;;;;;41.45;16.10;;;7.80;99.90;;;;;;5073487;28;20111;-71
2023/12/09 04:00:23;;;;;;;42.83;16.17;;;7.80;99.90;;;;;;5071938;28;20126;-71
2023/12/09 04:02:49;;;;;;;42.50;15.52;;;7.80;99.90;;;;;;5071966;28;20032;-71
2023/12/09 04:05:14;;;;;;;50.17;15.82;;;7.80;99.90;;;;;;5072240;28;20139;-71
2023/12/09 04:07:40;;;;;;;43.75;15.57;;;7.80;99.90;;;;;;5072191;28;20520;-71
2023/12/09 04:10:06;;;;;;;40.38;14.88;;;7.80;99.90;;;;;;5072133;28;20417;-71
2023/12/09 04:12:32;;;;;;;47.75;15.55;;;7.80;99.90;;;;;;5071916;28;20452;-71
2023/12/09 04:14:58;;;;;;;49.03;15.10;;;7.80;99.90;;;;;;5055109;28;20037;-71
2023/12/09 04:17:23;;;;;;;47.97;14.10;;;7.80;99.90;;;;;;5073303;28;20048;-70
2023/12/09 04:19:51;;;;;;;41.25;13.95;;;7.80;99.90;;;;;;5072062;28;20064;-70
2023/12/09 04:22:17;;;;;;;49.75;15.18;;;7.80;99.90;;;;;;5071704;28;20032;-71
2023/12/09 04:24:42;;;;;;;45.63;14.55;;;7.80;99.90;;;;;;5073014;28;20048;-71
2023/12/09 04:27:08;;;;;;;39.55;14.02;;;7.80;99.90;;;;;;5071757;28;20041;-71
2023/12/09 04:29:34;;;;;;;47.50;15.27;;;7.80;99.90;;;;;;5072946;28;20044;-71
2023/12/09 04:32:00;;;;;;;40.45;13.68;;;7.80;99.90;;;;;;5073223;28;20077;-71
2023/12/09 04:34:25;;;;;;;36.35;13.95;;;7.80;99.90;;;;;;5071692;28;20496;-71
2023/12/09 04:36:51;;;;;;;45.30;13.32;;;7.80;99.90;;;;;;5074291;28;20029;-71
2023/12/09 04:39:17;;;;;;;45.80;14.15;;;7.80;99.90;;;;;;5077194;28;20517;-71
2023/12/09 04:41:42;;;;;;;44.78;14.32;;;7.80;99.90;;;;;;5075905;28;20493;-71
2023/12/09 04:44:08;;;;;;;43.08;14.30;;;7.90;99.90;;;;;;5077133;28;20032;-71
2023/12/09 04:46:34;;;;;;;46.05;13.32;;;7.80;99.90;;;;;;5077160;28;20371;-71
2023/12/09 04:49:00;;;;;;;43.58;13.90;;;7.80;99.90;;;;;;5077057;28;20123;-71
2023/12/09 04:51:26;;;;;;;40.80;14.50;;;7.80;99.90;;;;;;5075747;28;20044;-71
2023/12/09 04:53:51;;;;;;;42.47;13.40;;;7.80;99.90;;;;;;5077001;28;20040;-71
2023/12/09 04:56:18;;;;;;;47.80;14.23;;;7.80;99.90;;;;;;5076958;28;20094;-71
2023/12/09 04:58:44;;;;;;;45.15;13.90;;;7.80;99.90;;;;;;5076767;28;20040;-71
2023/12/09 05:01:09;;;;;;;48.80;13.65;;;7.80;99.90;;;;;;5075229;28;20394;-71
2023/12/09 05:03:35;;;;;;;49.70;13.55;;;7.80;99.90;;;;;;5076795;28;20068;-71
2023/12/09 05:06:00;;;;;;;48.35;13.50;;;7.80;99.90;;;;;;5075230;28;20501;-71
2023/12/09 05:08:28;;;;;;;45.45;14.15;;;7.80;99.90;;;;;;5076654;28;20040;-71
2023/12/09 05:10:53;;;;;;;46.95;12.93;;;7.80;99.90;;;;;;5075054;28;20045;-71
2023/12/09 05:13:19;;;;;;;49.72;14.20;;;7.80;99.90;;;;;;5076287;28;20454;-71
2023/12/09 05:15:44;;;;;;;53.67;13.65;;;7.80;99.90;;;;;;5075010;28;20041;-71
2023/12/09 05:18:10;;;;;;;36.95;12.45;;;7.80;99.90;;;;;;5075104;28;20091;-71
2023/12/09 05:20:35;;;;;;;38.78;12.35;;;7.80;99.90;;;;;;5074851;28;20541;-71
2023/12/09 05:23:01;;;;;;;40.97;12.52;;;7.80;99.90;;;;;;5074791;28;20119;-71
2023/12/09 05:25:27;;;;;;;40.75;13.25;;;7.80;99.90;;;;;;5075093;28;20045;-71
2023/12/09 05:27:53;;;;;;;39.42;13.52;;;7.80;99.90;;;;;;5074793;28;20079;-71
2023/12/09 05:30:19;;;;;;;40.38;12.90;;;7.80;99.90;;;;;;5076197;28;20047;-71
2023/12/09 05:32:44;;;;;;;41.40;13.02;;;7.80;99.90;;;;;;5074712;28;20044;-71
2023/12/09 05:35:10;;;;;;;39.25;13.05;;;7.80;99.90;;;;;;5076204;28;20040;-71
2023/12/09 05:37:36;;;;;;;41.85;13.73;;;7.80;99.90;;;;;;5074553;28;20437;-71
2023/12/09 05:40:02;;;;;;;41.40;13.70;;;7.80;99.90;;;;;;5074531;28;20044;-71
2023/12/09 05:42:28;;;;;;;37.78;12.48;;;7.80;99.90;;;;;;5074559;28;20037;-71
2023/12/09 05:44:53;;;;;;;42.78;13.52;;;7.80;99.90;;;;;;5076046;28;20086;-71
2023/12/09 05:47:19;;;;;;;42.65;13.57;;;7.80;99.90;;;;;;5074473;28;20078;-71
2023/12/09 05:49:45;;;;;;;42.97;13.25;;;7.80;99.90;;;;;;5074008;28;20052;-71
2023/12/09 05:52:10;;;;;;;46.03;14.35;;;7.70;99.90;;;;;;5074361;28;20386;-71
2023/12/09 05:54:39;;;;;;;44.78;14.70;;;7.70;99.90;;;;;;5074306;28;20127;-71
2023/12/09 05:57:04;;;;;;;37.92;12.93;;;7.70;99.90;;;;;;5074538;28;20040;-71
2023/12/09 05:59:30;;;;;;;37.45;13.93;;;7.70;99.90;;;;;;5075610;28;20131;-71
2023/12/09 06:01:56;;;;;;;42.75;14.40;;;7.70;99.90;;;;;;5074228;28;20036;-71
2023/12/09 06:04:21;;;;;;;47.92;14.18;;;7.70;99.90;;;;;;5074501;28;20044;-71
2023/12/09 06:06:47;;;;;;;45.95;14.43;;;7.70;99.90;;;;;;5074094;28;20044;-71
2023/12/09 06:09:13;;;;;;;39.38;14.32;;;7.70;99.90;;;;;;5075568;28;20044;-71
2023/12/09 06:11:38;;;;;;;39.67;13.90;;;7.70;99.90;;;;;;5073943;28;20067;-71
2023/12/09 06:14:06;;;;;;;43.08;13.63;;;7.60;99.90;;;;;;5073936;28;20039;-71
2023/12/09 06:16:32;;;;;;;38.28;14.05;;;7.70;99.90;;;;;;5075489;28;20094;-71
2023/12/09 06:18:58;;;;;;;37.83;13.57;;;7.60;99.90;;;;;;5073941;28;20504;-71
2023/12/09 06:21:25;;;;;;;44.95;14.85;;;7.60;99.90;;;;;;5075207;28;20033;-71
2023/12/09 06:23:52;;;;;;;38.17;13.52;;;7.60;99.90;;;;;;5074978;28;20503;-71
2023/12/09 06:26:18;;;;;;;40.83;13.05;;;7.60;99.90;;;;;;5057077;28;20043;-71
2023/12/09 06:28:43;;;;;;;47.83;13.07;;;7.60;99.90;;;;;;5073736;28;20054;-71
2023/12/09 06:31:12;;;;;;;37.03;12.57;;;7.60;99.90;;;;;;5075095;28;20119;-71
2023/12/09 06:33:38;;;;;;;38.42;12.95;;;7.60;99.90;;;;;;5075110;28;20036;-71
2023/12/09 06:36:04;;;;;;;38.13;13.05;;;7.60;99.90;;;;;;5075056;28;20036;-70
2023/12/09 06:38:30;;;;;;;37.17;12.27;;;7.50;99.90;;;;;;5075117;28;20481;-71
2023/12/09 06:40:55;;;;;;;34.65;12.05;;;7.50;99.90;;;;;;5073674;28;20093;-71
2023/12/09 06:43:21;;;;;;;32.08;11.63;;;7.50;99.90;;;;;;5073345;28;20496;-71
2023/12/09 06:45:47;;;;;;;42.42;12.45;;;7.40;99.90;;;;;;5073411;28;20037;-71
2023/12/09 06:48:13;;;;;;;37.63;11.73;;;7.40;99.90;;;;;;5073309;28;20044;-71
2023/12/09 06:50:39;;;;;;;39.10;12.65;;;7.40;99.90;;;;;;5074646;28;20079;-71
2023/12/09 06:53:04;;;;;;;37.53;12.70;;;7.40;99.90;;;;;;5073217;28;20049;-71
2023/12/09 06:55:30;;;;;;;32.35;11.43;;;7.40;99.90;;;;;;5073120;28;20044;-71
2023/12/09 06:57:55;;;;;;;38.05;12.55;;;7.40;99.90;;;;;;5072612;28;20048;-71
2023/12/09 07:00:21;;;;;;;33.83;12.25;;;7.30;99.90;;;;;;5070325;28;20736;-71
2023/12/09 07:02:47;;;;;;;38.78;12.60;;;7.30;99.90;;;;;;5071749;28;20028;-71
2023/12/09 07:05:15;;;;;;;39.17;11.57;;;7.30;99.90;;;;;;5056364;28;20064;-71
2023/12/09 07:07:41;;;;;;;39.00;11.88;;;7.30;99.90;;;;;;5072956;28;20041;-71
2023/12/09 07:10:08;;;;;;;39.50;12.45;;;7.30;99.90;;;;;;5072762;28;20056;-71
2023/12/09 07:12:33;;;;;;;33.85;11.57;;;7.30;99.90;;;;;;5074319;28;20382;-71
2023/12/09 07:14:59;;;;;;;32.85;11.60;;;7.20;99.90;;;;;;5074231;28;20508;-71
2023/12/09 07:17:25;;;;;;;38.50;11.85;;;7.30;99.90;;;;;;5055979;28;20511;-71
2023/12/09 07:19:52;;;;;;;36.55;11.63;;;7.30;99.90;;;;;;5074106;28;20047;-71
2023/12/09 07:22:18;;;;;;;36.13;12.15;;;7.30;99.90;;;;;;5072503;28;20512;-70
2023/12/09 07:24:44;;;;;;;32.65;11.57;;;7.30;99.90;;;;;;5074094;28;20068;-70
2023/12/09 07:27:10;;;;;;;30.65;10.27;;;7.20;99.90;;;;;;5072631;28;20438;-70
2023/12/09 07:29:35;;;;;;;45.15;11.85;;;7.30;99.90;;;;;;5072423;28;20036;-70
2023/12/09 07:32:01;;;;;;;33.22;11.80;;;7.20;99.90;;;;;;5072479;28;20127;-70
2023/12/09 07:34:26;;;;;;;36.25;10.65;;;7.30;99.90;;;;;;5072686;28;20040;-70
2023/12/09 07:36:52;;;;;;;33.55;11.27;;;7.20;99.90;;;;;;5073565;28;20493;-71
2023/12/09 07:39:18;;;;;;;45.03;12.43;;;7.20;99.90;;;;;;5072272;28;20044;-70
2023/12/09 07:41:44;;;;;;;35.13;10.57;;;7.20;99.90;;;;;;5072512;28;20040;-70
2023/12/09 07:44:10;;;;;;;33.30;9.73;;;7.20;99.90;;;;;;5072251;28;20037;-71
2023/12/09 07:46:36;;;;;;;29.60;9.88;;;7.20;99.90;;;;;;5072493;28;20036;-71
2023/12/09 07:49:02;;;;;;;29.55;9.77;;;7.20;99.90;;;;;;5072167;28;20512;-71
2023/12/09 07:51:27;;;;;;;30.58;8.75;;;7.20;99.90;;;;;;5072231;28;20048;-71
2023/12/09 07:53:53;;;;;;;33.63;9.95;;;7.20;99.90;;;;;;5073629;28;20036;-71
2023/12/09 07:56:18;;;;;;;39.08;9.60;;;7.20;99.90;;;;;;5073577;28;20044;-71
2023/12/09 07:58:45;;;;;;;41.67;9.32;;;7.20;99.90;;;;;;5073248;28;20036;-72
2023/12/09 08:01:11;;;;;;;35.40;8.05;;;7.20;99.90;;;;;;5072215;28;20098;-71
2023/12/09 08:03:37;;;;;;;31.10;8.15;;;7.20;99.90;;;;;;5072301;28;20416;-71
2023/12/09 08:06:03;;;;;;;33.03;8.18;;;7.20;99.90;;;;;;5074060;28;20119;-71
2023/12/09 08:08:29;;;;;;;31.92;8.27;;;7.20;99.90;;;;;;5073721;28;20119;-71
2023/12/09 08:10:54;;;;;;;28.38;8.43;;;7.20;99.90;;;;;;5073441;28;20037;-71
2023/12/09 08:13:20;;;;;;;28.77;8.38;;;7.20;99.90;;;;;;5073112;28;20040;-71
2023/12/09 08:15:46;;;;;;;26.70;7.30;;;7.30;99.90;;;;;;5071933;28;20052;-71
2023/12/09 08:18:11;;;;;;;34.25;8.07;;;7.20;99.90;;;;;;5071760;28;20040;-71
2023/12/09 08:20:37;;;;;;;26.77;7.38;;;7.20;99.90;;;;;;5073367;28;20045;-71
2023/12/09 08:23:05;;;;;;;26.20;7.30;;;7.20;99.90;;;;;;5071747;28;20492;-71
2023/12/09 08:25:31;;;;;;;25.70;6.78;;;7.20;99.90;;;;;;5072062;28;20055;-71
2023/12/09 08:27:57;;;;;;;27.90;7.05;;;7.20;99.90;;;;;;5072052;28;20071;-71
2023/12/09 08:30:23;;;;;;;29.75;6.70;;;7.20;99.90;;;;;;5073200;28;20489;-71
2023/12/09 08:32:49;;;;;;;23.25;6.60;;;7.20;99.90;;;;;;5071768;28;20036;-72
2023/12/09 08:35:14;;;;;;;27.10;6.63;;;7.20;99.90;;;;;;5073297;28;20051;-71
2023/12/09 08:37:40;;;;;;;25.20;6.38;;;7.10;99.90;;;;;;5071880;28;20451;-71
2023/12/09 08:40:12;;;;;;;27.17;6.00;;;7.10;99.90;;;;;;5072065;28;20124;-71
2023/12/09 08:42:38;;;;;;;27.42;6.65;;;7.10;99.90;;;;;;5072912;28;20493;-71
2023/12/09 08:45:05;;;;;;;25.02;5.65;;;7.10;99.90;;;;;;5071517;28;20036;-71
2023/12/09 08:47:30;;;;;;;21.92;5.93;;;7.10;99.90;;;;;;5072783;28;20032;-71
2023/12/09 08:49:56;;;;;;;21.70;5.68;;;7.10;99.90;;;;;;5072158;28;20066;-71
2023/12/09 08:52:21;;;;;;;25.38;5.90;;;7.10;99.90;;;;;;5073049;28;20033;-71
2023/12/09 08:54:47;;;;;;;23.17;5.63;;;7.10;99.90;;;;;;5054838;28;20047;-71
2023/12/09 08:57:13;;;;;;;22.85;5.47;;;7.10;99.90;;;;;;5072650;28;20036;-71
2023/12/09 08:59:38;;;;;;;21.92;5.50;;;7.10;99.90;;;;;;5072944;28;20037;-71
2023/12/09 09:02:04;;;;;;;20.05;5.40;;;7.10;99.90;;;;;;5072984;28;20093;-71
2023/12/09 09:04:29;;;;;;;21.02;5.57;;;7.10;99.90;;;;;;5071425;28;20379;-71
2023/12/09 09:06:55;;;;;;;19.67;6.13;;;7.10;99.90;;;;;;5072892;28;20032;-71
2023/12/09 09:09:21;;;;;;;23.63;5.47;;;7.10;99.90;;;;;;5071314;28;20049;-71
2023/12/09 09:11:46;;;;;;;25.23;5.50;;;7.20;99.90;;;;;;5072622;28;20037;-71
2023/12/09 09:14:12;;;;;;;20.10;4.47;;;7.20;99.90;;;;;;5071907;28;20072;-71
2023/12/09 09:16:37;;;;;;;24.02;4.97;;;7.20;99.90;;;;;;5072817;28;20546;-71
2023/12/09 09:19:05;;;;;;;20.17;5.32;;;7.20;99.90;;;;;;5071315;28;20044;-71
2023/12/09 09:21:30;;;;;;;20.98;4.60;;;7.20;99.90;;;;;;5071261;28;20044;-71
2023/12/09 09:23:56;;;;;;;24.17;4.30;;;7.20;99.90;;;;;;5072287;28;20060;-71
2023/12/09 09:26:21;;;;;;;23.08;4.95;;;7.20;99.90;;;;;;5076387;28;20055;-71
2023/12/09 09:28:47;;;;;;;20.50;4.60;;;7.20;99.90;;;;;;5075134;28;20047;-71
2023/12/09 09:31:13;;;;;;;20.25;4.15;;;7.30;99.90;;;;;;5076209;28;20455;-71
2023/12/09 09:33:41;;;;;;;19.35;4.53;;;7.30;99.90;;;;;;5076291;28;20051;-71
2023/12/09 09:36:07;;;;;;;16.65;4.60;;;7.30;99.90;;;;;;5076226;28;20106;-71
2023/12/09 09:38:34;;;;;;;21.52;4.55;;;7.30;99.90;;;;;;5074573;28;20455;-71
2023/12/09 09:41:02;;;;;;;24.63;4.78;;;7.30;99.90;;;;;;5076047;28;20564;-71
2023/12/09 09:43:32;;;;;;;23.05;4.55;;;7.30;99.90;;;;;;5076041;28;20036;-71
2023/12/09 09:45:58;;;;;;;23.75;4.70;;;7.30;99.90;;;;;;5074874;28;20557;-71
2023/12/09 09:48:24;;;;;;;15.48;3.72;;;7.30;99.90;;;;;;5074537;28;20085;-71
2023/12/09 09:50:52;;;;;;;17.77;4.15;;;7.30;99.90;;;;;;5076541;28;20051;-71
2023/12/09 09:53:34;;;;;;;17.00;3.88;;;7.40;99.90;;;;;;5074660;28;20102;-71
2023/12/09 09:56:02;;;;;;;17.73;4.15;;;7.40;99.90;;;;;;5075883;28;20134;-71
2023/12/09 09:58:28;;;;;;;24.30;4.00;;;7.40;99.90;;;;;;5074334;28;20615;-71
2023/12/09 10:00:56;;;;;;;16.45;4.03;;;7.40;99.90;;;;;;5075733;28;20032;-71
2023/12/09 10:03:23;;;;;;;15.60;4.15;;;7.40;99.90;;;;;;5074221;28;20037;-71
2023/12/09 10:05:49;;;;;;;19.52;3.90;;;7.40;99.90;;;;;;5057697;28;20041;-71
2023/12/09 10:08:15;;;;;;;20.50;4.85;;;7.40;99.90;;;;;;5074139;28;20115;-71
2023/12/09 10:10:40;;;;;;;20.13;3.80;;;7.40;99.90;;;;;;5074224;28;20124;-71
2023/12/09 10:13:07;;;;;;;19.95;4.70;;;7.50;99.90;;;;;;5075579;28;20048;-74
2023/12/09 10:15:33;;;;;;;14.43;4.40;;;7.50;99.90;;;;;;5074256;28;20059;-73
2023/12/09 10:18:04;;;;;;;14.40;3.85;;;7.50;99.90;;;;;;5075489;28;20041;-73
2023/12/09 10:20:33;;;;;;;15.23;3.03;;;7.60;99.90;;;;;;5074267;28;20047;-73
2023/12/09 10:23:00;;;;;;;13.63;3.03;;;7.60;99.90;;;;;;5074022;28;20385;-73
2023/12/09 10:25:25;;;;;;;14.75;4.05;;;7.60;99.90;;;;;;5074024;28;20032;-74
2023/12/09 10:27:51;;;;;;;20.25;3.72;;;7.60;99.90;;;;;;5075511;28;20040;-75
2023/12/09 10:30:18;;;;;;;13.13;3.00;;;7.70;99.90;;;;;;5073651;28;20093;-75
2023/12/09 10:32:45;;;;;;;24.63;3.65;;;7.70;99.90;;;;;;5075456;28;20111;-72
2023/12/09 10:35:10;;;;;;;12.85;2.88;;;7.60;99.90;;;;;;5075082;28;20051;-71
2023/12/09 10:37:36;;;;;;;26.58;3.88;;;7.60;99.90;;;;;;5073786;28;20048;-72
2023/12/09 10:40:06;;;;;;;19.80;3.30;;;7.60;99.90;;;;;;5073563;28;20045;-71
2023/12/09 10:42:32;;;;;;;14.80;3.00;;;7.60;99.90;;;;;;5073660;28;20520;-72
2023/12/09 10:44:57;;;;;;;15.10;3.30;;;7.60;99.90;;;;;;5057101;28;20036;-71
2023/12/09 10:47:25;;;;;;;10.10;2.85;;;7.60;99.90;;;;;;5073436;28;20507;-72
2023/12/09 10:49:51;;;;;;;11.95;3.60;;;7.70;99.90;;;;;;5074984;28;20032;-72
2023/12/09 10:52:17;;;;;;;16.45;2.95;;;7.70;99.90;;;;;;5073481;28;20090;-72
2023/12/09 10:54:42;;;;;;;17.55;3.40;;;7.80;99.90;;;;;;5075129;28;20032;-72
2023/12/09 10:57:08;;;;;;;13.70;3.42;;;7.80;99.90;;;;;;5074642;28;20394;-75
2023/12/09 10:59:34;;;;;;;14.32;2.90;;;7.80;99.90;;;;;;5074507;28;20435;-72
2023/12/09 11:02:01;;;;;;;13.95;3.42;;;7.90;99.90;;;;;;5074594;28;20452;-72
2023/12/09 11:04:26;;;;;;;15.50;3.22;;;8.00;99.90;;;;;;5075363;28;20124;-72
2023/12/09 11:06:55;;;;;;;15.60;3.08;;;8.00;99.90;;;;;;5074325;28;20496;-72
2023/12/09 11:09:21;;;;;;;15.18;3.42;;;8.00;99.90;;;;;;5073214;28;20176;-72
2023/12/09 11:11:47;;;;;;;12.95;3.30;;;8.00;99.90;;;;;;5072889;28;20079;-72
2023/12/09 11:14:13;;;;;;;11.95;3.28;;;8.00;99.90;;;;;;5074364;28;20040;-72
2023/12/09 11:16:43;;;;;;;13.38;3.55;;;8.00;99.90;;;;;;5074304;28;20119;-72
2023/12/09 11:19:18;;;;;;;12.15;3.03;;;8.00;99.90;;;;;;5073932;28;20497;-72
2023/12/09 11:21:45;;;;;;;13.70;4.10;;;8.00;99.90;;;;;;5073997;28;20032;-72
2023/12/09 11:24:12;;;;;;;11.75;3.17;;;7.90;99.90;;;;;;5073727;28;20068;-72
2023/12/09 11:26:40;;;;;;;15.13;3.72;;;7.90;99.90;;;;;;5074088;28;20048;-72
2023/12/09 11:29:09;;;;;;;12.18;3.03;;;7.90;99.90;;;;;;5072698;28;20048;-72
2023/12/09 11:31:49;;;;;;;14.65;3.38;;;7.90;99.90;;;;;;5072881;28;20079;-71
2023/12/09 11:34:17;;;;;;;16.40;3.63;;;7.90;99.90;;;;;;5072431;28;20043;-71
2023/12/09 11:36:43;;;;;;;14.05;3.38;;;7.90;99.90;;;;;;5073945;28;20037;-71
2023/12/09 11:39:17;;;;;;;13.05;3.50;;;7.90;99.90;;;;;;5073786;28;20033;-71
2023/12/09 11:41:44;;;;;;;15.63;3.22;;;8.00;99.90;;;;;;5074003;28;20044;-71
2023/12/09 11:44:10;;;;;;;13.82;3.17;;;7.90;99.90;;;;;;5073532;28;20481;-71
2023/12/09 11:46:37;;;;;;;13.60;2.80;;;7.90;99.90;;;;;;5073263;28;20061;-71
2023/12/09 11:49:04;;;;;;;18.40;3.20;;;8.00;99.90;;;;;;5072229;28;20040;-71
2023/12/09 11:51:30;;;;;;;10.05;2.65;;;8.00;99.90;;;;;;5072140;28;20066;-71
2023/12/09 11:53:58;;;;;;;13.60;3.05;;;8.00;99.90;;;;;;5072150;28;20044;-71
2023/12/09 11:56:24;;;;;;;9.68;2.92;;;7.90;99.90;;;;;;5072158;28;20123;-71
2023/12/09 11:58:50;;;;;;;13.30;2.67;;;8.00;99.90;;;;;;5073557;28;20119;-71
2023/12/09 12:01:20;;;;;;;14.63;3.30;;;8.00;99.90;;;;;;5073515;28;20489;-71
2023/12/09 12:03:49;;;;;;;10.43;2.35;;;8.00;99.90;;;;;;5055285;28;20032;-71
2023/12/09 12:06:16;;;;;;;14.57;3.45;;;8.00;99.90;;;;;;5073579;28;20499;-71
2023/12/09 12:08:43;;;;;;;11.80;2.70;;;8.00;99.90;;;;;;5072069;28;20037;-71
2023/12/09 12:11:09;;;;;;;13.80;2.88;;;8.00;99.90;;;;;;5073442;28;20041;-71
2023/12/09 12:13:35;;;;;;;10.35;3.13;;;8.00;99.90;;;;;;5073399;28;20040;-71
2023/12/09 12:16:01;;;;;;;11.00;2.75;;;8.00;99.90;;;;;;5072202;28;20097;-71
2023/12/09 12:18:29;;;;;;;8.20;2.65;;;8.10;99.90;;;;;;5071838;28;20383;-71
2023/12/09 12:20:56;;;;;;;11.07;3.05;;;8.10;99.90;;;;;;5073298;28;20047;-71
2023/12/09 12:23:22;;;;;;;15.90;2.58;;;8.10;99.90;;;;;;5071667;28;20051;-71
2023/12/09 12:25:54;;;;;;;13.77;2.70;;;8.10;99.90;;;;;;5073290;28;20051;-71
2023/12/09 12:28:24;;;;;;;10.90;2.42;;;8.20;99.90;;;;;;5071824;28;20047;-71
2023/12/09 12:30:53;;;;;;;14.57;3.15;;;8.20;99.90;;;;;;5073209;28;20036;-71
2023/12/09 12:33:23;;;;;;;13.35;2.65;;;8.20;99.90;;;;;;5071801;28;20041;-71
2023/12/09 12:35:51;;;;;;;11.77;2.75;;;8.20;99.90;;;;;;5073219;28;20053;-71